Granville, ND

5:49 PM CDT on August 30, 2015 (GMT -0500)
Deering Mobile Home Estates | | Change Station
CLOSE
Current Station
Personal Weather Station
Location: Deering, ND
Elevation: 1549 ft
Nearby Weather Stations

Elev 1549 ft 48.40 °N, 101.05 °W | Updated 7 minutes ago

Partly Cloudy
Partly Cloudy
86.7 °F
Feels Like 88 °F
N
2.2
Wind Variable Wind from NNW

Today
High -- | Low -- °F
--% Chance of Precip.
Yesterday
High -- | Low -- °F
Precip. -- in
6:57 AM 8:29 PM
Full, 98% visible
Pressure 29.61 in
Visibility 10.0 miles
Clouds Clear
Heat Index 88 °F
Dew Point 63 °F
Humidity 45%
Rainfall 0.00 in
Snow Depth Not available.
UV 4 out of 12
Pollen 10.70 out of 12
Air Quality Not available.
Flu Activity Not available.
METAR KMIB 302158Z AUTO 30009KT 10SM CLR 33/13 A2962 RMK AO2 SLP025 T03290126 $
Pressure 29.61 in
Visibility 10.0 miles
Clouds Clear
Heat Index 88 °F
Dew Point 63 °F
Humidity 45%
Rainfall 0.00 in
Snow Depth Not available.
UV 4 out of 12
Pollen 10.70 out of 12
Air Quality Not available.
Flu Activity Not available.
METAR KMIB 302158Z AUTO 30009KT 10SM CLR 33/13 A2962 RMK AO2 SLP025 T03290126 $

10-Day Weather Forecast

×

Almanac

Astronomy

Aug. 30, 2015 Rise Set
Actual Time
Civil Twilight
Nautical Twilight
Astronomical Twilight
Moon
Length of Visible Light
Length of Day
Tomorrow will be .
, % of the Moon is Illuminated

Today's Extremes

State Highs State Lows

Community

WunderPhotos

Upload Photos

1,851,075 photos uploaded!

WunderBlogs® & News

Nearby

Air Quality

  Air Quality AQ Index Pollutant
Not available.

Snow Depth

Station Depth Elevation

Earthquake Activity

City Distance Mag. Time & Date
Minimum magnitude displayed is 2.5.

Coastal Water Temperatures

Place Temperature

Stations

Nearby Weather Stations

Station Location Temp. Windchill Dew Point Humidity Wind Precip. Elev Updated Type